Time;durP1;ratioP1;P1;durP2;ratioP2;P2;SDS_P1;SDS_P2;PMS_P1;PMS_P2;Temp;Humidity;BMP_temperature;BMP_pressure;BME280_temperature;BME280_humidity;BME280_pressure;Samples;Min_cycle;Max_cycle;Signal;HPM_P1;HPM_P2
2022/12/20 00:02:38;;;;;;;4.07;3.67;;;;;;;19.51;43.33;97633.44;10335617;28;20061;-55
2022/12/20 00:07:57;;;;;;;4.95;3.70;;;;;;;19.48;43.32;97640.25;10334835;28;20581;-56
2022/12/20 00:13:17;;;;;;;4.53;4.13;;;;;;;19.46;43.24;97661.34;10334745;28;20679;-56
2022/12/20 00:18:37;;;;;;;4.43;3.72;;;;;;;19.45;43.21;97654.34;10347987;28;20495;-56
2022/12/20 00:23:58;;;;;;;4.97;3.75;;;;;;;19.42;43.05;97657.63;10336762;28;20525;-57
2022/12/20 00:29:17;;;;;;;5.18;3.95;;;;;;;19.40;43.13;97675.28;10333351;28;20074;-56
2022/12/20 00:34:36;;;;;;;5.47;3.55;;;;;;;19.38;43.24;97662.06;10334566;28;20410;-56
2022/12/20 00:39:56;;;;;;;5.07;3.78;;;;;;;19.36;43.08;97632.63;10334030;28;20121;-54
2022/12/20 00:45:15;;;;;;;4.88;3.90;;;;;;;19.35;43.17;97627.56;10333366;28;20054;-56
2022/12/20 00:50:35;;;;;;;5.10;3.92;;;;;;;19.32;43.12;97620.03;10333855;28;20065;-56
2022/12/20 00:55:54;;;;;;;5.10;3.90;;;;;;;19.30;43.03;97627.66;10333694;28;20065;-56
2022/12/20 01:01:20;;;;;;;5.93;3.72;;;;;;;19.29;43.11;97636.88;10346518;28;20055;-56
2022/12/20 01:06:40;;;;;;;4.93;3.50;;;;;;;19.26;42.91;97630.16;10318808;28;20097;-56
2022/12/20 01:12:00;;;;;;;4.03;3.53;;;;;;;19.25;42.96;97635.84;10332521;28;20050;-56
2022/12/20 01:17:19;;;;;;;5.32;3.92;;;;;;;19.23;42.95;97627.25;10345975;28;20054;-48
2022/12/20 01:22:39;;;;;;;4.55;3.88;;;;;;;19.21;42.79;97629.44;10323830;28;20058;-56
2022/12/20 01:27:58;;;;;;;4.78;3.58;;;;;;;19.19;42.84;97623.53;10319678;28;20081;-56
2022/12/20 01:33:17;;;;;;;4.13;3.72;;;;;;;19.17;42.80;97608.47;10331484;28;20510;-56
2022/12/20 01:38:37;;;;;;;4.25;3.72;;;;;;;19.14;42.69;97592.06;10326992;28;20065;-56
2022/12/20 01:44:03;;;;;;;4.18;3.50;;;;;;;19.13;42.67;97593.97;10329161;28;20120;-56
2022/12/20 01:49:29;;;;;;;4.18;3.78;;;;;;;19.11;42.80;97600.75;10339900;28;20042;-56
2022/12/20 01:54:59;;;;;;;3.95;3.30;;;;;;;19.08;42.70;97572.44;10335174;28;20055;-56
2022/12/20 02:00:19;;;;;;;4.00;3.53;;;;;;;19.07;42.77;97587.06;10331429;28;20537;-46
2022/12/20 02:05:44;;;;;;;3.90;3.15;;;;;;;19.05;42.41;97588.44;10317379;28;20058;-45
2022/12/20 02:11:14;;;;;;;4.95;3.60;;;;;;;19.04;42.72;97578.75;10325896;28;20077;-45
2022/12/20 02:17:12;;;;;;;4.65;3.65;;;;;;;19.00;42.57;97575.84;10317135;28;20062;-48
2022/12/20 02:22:59;;;;;;;4.23;3.60;;;;;;;18.98;42.68;97567.25;10276562;28;20518;-47
2022/12/20 02:28:40;;;;;;;4.15;3.58;;;;;;;18.96;42.65;97570.25;10331634;28;20069;-46
2022/12/20 02:34:01;;;;;;;3.83;3.38;;;;;;;18.94;42.67;97580.56;10343850;28;20066;-46
2022/12/20 02:39:22;;;;;;;4.70;3.72;;;;;;;18.92;42.66;97571.16;10331185;28;20058;-46
2022/12/20 02:50:35;;;;;;;3.78;3.45;;;;;;;18.88;42.64;97570.97;10318854;28;20066;-46
2022/12/20 02:56:06;;;;;;;4.20;3.50;;;;;;;18.88;42.62;97570.19;10337901;28;20061;-46
2022/12/20 03:01:32;;;;;;;4.03;3.50;;;;;;;18.85;42.66;97559.97;10323015;28;20066;-44
2022/12/20 03:07:07;;;;;;;4.30;3.58;;;;;;;18.82;42.35;97547.06;10336553;28;20058;-45
2022/12/20 03:12:26;;;;;;;4.07;3.40;;;;;;;18.82;42.76;97541.66;10310741;28;20069;-46
2022/12/20 03:17:45;;;;;;;3.40;3.10;;;;;;;18.78;42.68;97531.44;10337644;28;20142;-45
2022/12/20 03:23:05;;;;;;;4.03;3.35;;;;;;;18.76;42.73;97517.44;10332688;28;20063;-45
2022/12/20 03:28:25;;;;;;;3.80;3.40;;;;;;;18.74;42.68;97526.97;10343834;28;20043;-46
2022/12/20 03:33:45;;;;;;;3.45;3.15;;;;;;;18.73;42.71;97545.03;10348819;28;20112;-46
2022/12/20 03:39:04;;;;;;;3.97;3.40;;;;;;;18.72;42.67;97538.06;10335710;28;20054;-47
2022/12/20 03:44:28;;;;;;;4.13;3.33;;;;;;;18.69;42.74;97544.03;10321047;28;20058;-45
2022/12/20 03:49:47;;;;;;;3.72;3.33;;;;;;;18.66;42.58;97552.75;10309965;28;20062;-44
2022/12/20 03:55:08;;;;;;;4.13;3.50;;;;;;;18.68;42.65;97555.13;10321594;28;20065;-47
2022/12/20 04:00:32;;;;;;;3.67;3.20;;;;;;;18.64;42.49;97563.06;10320559;28;20062;-48
2022/12/20 04:06:10;;;;;;;4.13;3.58;;;;;;;18.62;42.68;97573.34;10322641;28;20490;-47
2022/12/20 04:11:30;;;;;;;3.85;3.47;;;;;;;18.61;42.58;97571.72;10320803;28;20132;-47
2022/12/20 04:16:57;;;;;;;3.67;3.20;;;;;;;18.60;42.54;97555.84;10333093;28;20054;-46
2022/12/20 04:22:17;;;;;;;3.85;3.45;;;;;;;18.57;42.70;97533.75;10334314;28;20066;-44
2022/12/20 04:27:49;;;;;;;3.75;3.40;;;;;;;18.55;42.84;97514.34;10319678;28;20058;-47
2022/12/20 04:33:09;;;;;;;4.53;3.08;;;;;;;18.54;42.77;97537.06;10332644;28;20089;-46
2022/12/20 04:38:29;;;;;;;3.60;3.30;;;;;;;18.53;42.61;97556.25;10333910;28;20050;-45
2022/12/20 04:43:51;;;;;;;4.28;3.05;;;;;;;18.51;42.62;97547.66;10319347;28;20058;-45
2022/12/20 04:49:12;;;;;;;3.47;2.88;;;;;;;18.49;42.59;97556.03;10332711;28;20109;-45
2022/12/20 04:54:36;;;;;;;4.30;3.15;;;;;;;18.47;42.77;97554.75;10318943;28;20081;-48
2022/12/20 05:00:06;;;;;;;3.60;3.30;;;;;;;18.45;42.72;97573.13;10316499;28;20065;-47
2022/12/20 05:05:26;;;;;;;3.63;3.10;;;;;;;18.44;42.63;97563.41;10318034;28;20526;-47
2022/12/20 05:10:47;;;;;;;3.25;2.95;;;;;;;18.41;42.70;97540.53;10325969;28;20053;-47
2022/12/20 05:16:07;;;;;;;4.05;3.22;;;;;;;18.41;42.99;97543.25;10301015;28;20061;-45
2022/12/20 05:27:05;;;;;;;3.75;3.38;;;;;;;18.40;43.12;97536.22;10325131;28;20057;-46
2022/12/20 05:32:25;;;;;;;3.33;3.03;;;;;;;18.40;43.04;97533.53;10331600;28;20050;-47
2022/12/20 05:37:46;;;;;;;6.43;4.80;;;;;;;18.41;43.22;97532.44;10317705;28;20065;-45
2022/12/20 05:43:10;;;;;;;3.85;3.40;;;;;;;18.44;42.48;97533.75;10325690;28;20573;-44
2022/12/20 05:48:36;;;;;;;4.82;4.30;;;;;;;18.44;42.75;97474.38;10309181;28;20073;-47
2022/12/20 05:53:57;;;;;;;5.60;4.10;;;;;;;18.45;42.78;97465.22;10315419;28;20076;-45
2022/12/20 05:59:37;;;;;;;4.50;3.83;;;;;;;18.45;42.89;97501.06;10331311;28;20565;-46
2022/12/20 06:05:01;;;;;;;5.75;4.28;;;;;;;18.47;42.72;97557.44;10330627;28;20054;-45
2022/12/20 06:10:21;;;;;;;4.82;4.22;;;;;;;18.48;42.78;97545.53;10317027;28;20062;-46
2022/12/20 06:15:46;;;;;;;5.85;3.83;;;;;;;18.51;42.91;97550.34;10322894;28;20051;-45
2022/12/20 06:21:06;;;;;;;10.15;4.82;;;;;;;18.52;42.83;97530.34;10329659;28;20450;-46
2022/12/20 06:26:34;;;;;;;13.60;5.60;;;;;;;18.56;43.06;97536.72;10355948;28;20047;-46
2022/12/20 06:31:55;;;;;;;17.77;6.43;;;;;;;18.57;43.03;97547.22;10324634;28;20121;-48
2022/12/20 06:37:15;;;;;;;13.55;5.90;;;;;;;18.61;43.14;97511.56;10324650;28;20059;-46
2022/12/20 06:42:35;;;;;;;18.35;6.90;;;;;;;18.62;43.32;97500.47;10323370;28;20524;-44
2022/12/20 06:47:56;;;;;;;12.88;6.40;;;;;;;18.64;43.47;97492.88;10324166;28;20128;-46
2022/12/20 06:53:16;;;;;;;12.98;6.50;;;;;;;18.67;43.24;97503.06;10336968;28;20069;-46
2022/12/20 06:58:36;;;;;;;14.93;6.45;;;;;;;18.70;43.40;97488.16;10323651;28;20058;-47
2022/12/20 07:03:56;;;;;;;13.23;6.00;;;;;;;18.72;43.38;97484.06;10335776;28;20477;-46
2022/12/20 07:09:16;;;;;;;13.15;5.97;;;;;;;18.75;43.44;97499.66;10337380;28;20074;-45
2022/12/20 07:14:35;;;;;;;11.70;6.13;;;;;;;18.78;43.65;97482.06;10336950;28;20499;-45
2022/12/20 07:19:54;;;;;;;12.70;5.93;;;;;;;18.81;43.63;97475.28;10349884;28;20502;-44
2022/12/20 07:25:14;;;;;;;13.38;6.45;;;;;;;18.84;43.80;97423.41;10324681;28;20059;-45
2022/12/20 07:30:34;;;;;;;14.50;6.72;;;;;;;18.88;43.83;97446.00;10336874;28;20121;-45
2022/12/20 07:36:00;;;;;;;13.93;6.80;;;;;;;18.91;43.66;97410.28;10336146;28;20058;-47
2022/12/20 07:41:19;;;;;;;13.20;5.93;;;;;;;18.94;43.59;97445.56;10315633;28;20047;-49
2022/12/20 07:46:39;;;;;;;11.40;6.22;;;;;;;18.97;43.69;97481.94;10331183;28;20494;-46
2022/12/20 07:52:00;;;;;;;12.25;5.47;;;;;;;19.02;43.38;97491.84;10332476;28;20058;-47
2022/12/20 07:57:27;;;;;;;10.90;6.35;;;;;;;19.05;43.53;97475.84;10307211;28;20058;-46
2022/12/20 08:02:55;;;;;;;9.50;5.78;;;;;;;19.10;43.63;97472.22;10314453;28;20055;-47
2022/12/20 08:08:14;;;;;;;10.20;6.07;;;;;;;19.12;43.83;97518.63;10346745;28;20054;-48
2022/12/20 08:13:34;;;;;;;10.52;6.15;;;;;;;19.15;43.43;97508.03;10327429;28;20057;-47
2022/12/20 08:18:53;;;;;;;10.65;5.45;;;;;;;19.19;43.56;97504.69;10318397;28;20058;-47
2022/12/20 08:24:13;;;;;;;9.80;5.70;;;;;;;19.23;43.48;97489.47;10347687;28;20051;-47
2022/12/20 08:29:32;;;;;;;9.35;5.55;;;;;;;19.26;43.62;97486.19;10334563;28;20066;-48
2022/12/20 08:34:52;;;;;;;10.38;5.43;;;;;;;19.29;43.72;97480.97;10334464;28;20058;-50
2022/12/20 08:40:12;;;;;;;9.75;5.63;;;;;;;19.33;43.49;97479.25;10334076;28;20470;-46
2022/12/20 08:45:31;;;;;;;7.40;5.10;;;;;;;19.36;43.43;97465.13;10333426;28;20054;-45
2022/12/20 08:50:59;;;;;;;6.97;5.38;;;;;;;19.39;43.37;97474.53;10333756;28;20445;-47
2022/12/20 08:56:19;;;;;;;7.95;4.80;;;;;;;19.42;43.28;97419.06;10346477;28;20050;-47
2022/12/20 09:01:39;;;;;;;9.77;4.95;;;;;;;19.45;43.56;97380.63;10325404;28;20422;-48
2022/12/20 09:06:58;;;;;;;9.45;5.20;;;;;;;19.46;43.63;97410.03;10333007;28;20055;-46
2022/12/20 09:12:18;;;;;;;7.40;5.05;;;;;;;19.49;43.20;97463.47;10332745;28;20054;-47
2022/12/20 09:17:37;;;;;;;8.30;4.70;;;;;;;19.50;43.25;97485.88;10325414;28;20058;-45
2022/12/20 09:22:58;;;;;;;7.45;4.90;;;;;;;19.52;43.48;97489.06;10332464;28;20046;-45
2022/12/20 09:28:19;;;;;;;9.75;5.30;;;;;;;19.51;43.54;97488.28;10332749;28;20065;-45
2022/12/20 09:33:39;;;;;;;7.07;4.63;;;;;;;19.52;43.23;97498.00;10332126;28;20051;-45
2022/12/20 09:38:58;;;;;;;7.65;4.72;;;;;;;19.54;43.39;97489.56;10345586;28;20061;-45
2022/12/20 09:44:30;;;;;;;7.10;4.90;;;;;;;19.56;43.58;97484.66;10330990;28;20061;-48
2022/12/20 09:49:53;;;;;;;8.23;4.82;;;;;;;19.58;43.83;97465.44;10299140;28;20422;-45
2022/12/20 09:55:13;;;;;;;7.43;4.72;;;;;;;19.58;43.91;97460.03;10332154;28;20113;-44
2022/12/20 10:00:40;;;;;;;7.38;4.88;;;;;;;19.62;43.30;97463.69;10337229;28;20538;-45
2022/12/20 10:06:22;;;;;;;7.27;4.90;;;;;;;19.64;43.70;97426.34;10324810;28;20521;-47
2022/12/20 10:11:50;;;;;;;6.93;4.68;;;;;;;19.65;43.63;97404.44;10325116;28;20062;-47
2022/12/20 10:17:14;;;;;;;7.27;4.97;;;;;;;19.69;43.39;97410.00;10339542;28;20513;-45
2022/12/20 10:22:47;;;;;;;7.78;4.85;;;;;;;19.71;43.43;97419.44;10339866;28;20109;-46
2022/12/20 10:28:14;;;;;;;6.20;4.60;;;;;;;19.73;43.47;97446.16;10324725;28;20062;-46
2022/12/20 10:33:33;;;;;;;7.63;4.93;;;;;;;19.75;44.01;97430.44;10327081;28;20124;-47
2022/12/20 10:39:07;;;;;;;5.85;4.40;;;;;;;19.78;43.64;97394.69;10339153;28;20069;-45
2022/12/20 10:44:28;;;;;;;5.80;4.30;;;;;;;19.80;43.56;97386.22;10323836;28;20058;-47
2022/12/20 10:49:48;;;;;;;6.57;4.53;;;;;;;19.83;43.70;97377.50;10332372;28;20062;-46
2022/12/20 10:55:42;;;;;;;7.53;5.00;;;;;;;19.84;43.46;97360.97;10338604;28;20055;-47
2022/12/20 11:01:04;;;;;;;6.05;4.13;;;;;;;19.84;43.50;97374.50;10273588;28;20069;-46
2022/12/20 11:06:29;;;;;;;5.97;4.63;;;;;;;19.87;43.37;97375.78;10337746;28;20062;-47
2022/12/20 11:12:13;;;;;;;6.38;4.07;;;;;;;19.87;43.83;97387.38;10336574;28;20066;-47
2022/12/20 11:17:37;;;;;;;7.35;4.50;;;;;;;19.88;43.73;97382.78;10329155;28;20054;-45
2022/12/20 11:23:19;;;;;;;5.70;4.65;;;;;;;19.87;43.59;97406.31;10322575;28;20054;-46
2022/12/20 11:28:57;;;;;;;5.45;4.00;;;;;;;19.87;43.38;97395.50;10328700;28;20418;-45
2022/12/20 11:34:47;;;;;;;6.80;4.00;;;;;;;19.86;43.49;97388.50;10336647;28;20058;-44
2022/12/20 11:40:22;;;;;;;4.72;4.22;;;;;;;19.86;43.60;97396.63;10336069;28;20058;-45
2022/12/20 11:45:54;;;;;;;4.70;4.18;;;;;;;19.86;43.67;97372.28;10330026;28;20054;-47
2022/12/20 11:51:55;;;;;;;6.47;4.40;;;;;;;19.86;43.83;97353.34;10330473;28;20062;-46
2022/12/20 11:57:16;;;;;;;7.00;4.65;;;;;;;19.85;43.59;97356.38;10295117;28;20070;-45
2022/12/20 12:02:53;;;;;;;7.38;4.88;;;;;;;19.84;43.03;97338.56;10320712;28;20054;-46
2022/12/20 12:08:48;;;;;;;5.20;4.53;;;;;;;19.83;42.05;97309.91;10321042;28;20090;-45
2022/12/20 12:14:35;;;;;;;8.95;6.53;;;;;;;19.83;42.72;97294.47;10334372;28;20051;-49
2022/12/20 12:20:03;;;;;;;8.60;6.72;;;;;;;19.82;43.97;97287.50;10330519;28;20062;-47
2022/12/20 12:25:23;;;;;;;7.80;6.53;;;;;;;19.82;44.16;97284.78;10319227;28;20062;-48
2022/12/20 12:30:47;;;;;;;6.85;5.93;;;;;;;19.82;43.87;97281.31;10334403;28;20058;-47
2022/12/20 12:36:17;;;;;;;9.15;5.55;;;;;;;19.81;44.11;97277.00;10334611;28;20062;-46
2022/12/20 12:41:54;;;;;;;7.20;5.53;;;;;;;19.77;43.69;97276.81;10334271;28;20109;-48
2022/12/20 12:47:38;;;;;;;7.53;5.88;;;;;;;19.77;44.03;97271.41;10330520;28;20059;-47
2022/12/20 12:53:05;;;;;;;8.30;5.53;;;;;;;19.74;43.74;97272.06;10329906;28;20197;-47
2022/12/20 12:58:25;;;;;;;6.40;5.50;;;;;;;19.74;43.77;97272.84;10332903;28;20430;-46
2022/12/20 13:03:51;;;;;;;7.50;5.07;;;;;;;19.72;43.80;97264.25;10321789;28;20594;-48
2022/12/20 13:09:21;;;;;;;5.68;4.93;;;;;;;19.72;43.69;97255.34;10346115;28;20502;-47
2022/12/20 13:14:40;;;;;;;6.20;5.57;;;;;;;19.69;43.58;97256.72;10332240;28;20065;-49
2022/12/20 13:20:00;;;;;;;5.93;4.93;;;;;;;19.68;43.63;97246.22;10332542;28;20074;-47
2022/12/20 13:25:28;;;;;;;6.50;4.80;;;;;;;19.67;43.30;97248.13;10332855;28;20218;-46
2022/12/20 13:31:10;;;;;;;6.73;5.00;;;;;;;19.66;43.33;97256.56;10332521;28;20054;-45
2022/12/20 13:36:36;;;;;;;6.25;5.47;;;;;;;19.66;43.55;97261.97;10329695;28;20066;-47
2022/12/20 13:42:37;;;;;;;6.30;5.18;;;;;;;19.63;43.11;97241.78;10331376;28;20062;-45
2022/12/20 13:48:00;;;;;;;6.22;5.20;;;;;;;19.61;43.30;97238.59;10286695;28;20065;-46
2022/12/20 13:53:22;;;;;;;6.45;4.97;;;;;;;19.60;43.45;97239.72;10312556;28;20062;-46
2022/12/20 13:58:43;;;;;;;7.32;4.90;;;;;;;19.59;43.27;97237.31;10317726;28;20061;-47
2022/12/20 14:04:05;;;;;;;6.30;5.00;;;;;;;19.56;43.25;97253.06;10330491;28;20050;-46
2022/12/20 14:09:34;;;;;;;5.75;4.88;;;;;;;19.55;43.25;97250.66;10330279;28;20055;-45
2022/12/20 14:14:54;;;;;;;6.18;4.82;;;;;;;19.54;43.08;97233.66;10331210;28;20418;-47
2022/12/20 14:20:15;;;;;;;6.45;5.18;;;;;;;19.52;42.72;97256.66;10318676;28;20069;-47
2022/12/20 14:25:42;;;;;;;7.47;5.20;;;;;;;19.51;42.55;97236.97;10344232;28;20116;-46
2022/12/20 14:31:04;;;;;;;7.07;4.97;;;;;;;19.47;42.71;97227.09;10331330;28;20081;-48
2022/12/20 14:36:24;;;;;;;9.18;5.28;;;;;;;19.45;43.07;97242.84;10331013;28;20058;-47
2022/12/20 14:41:43;;;;;;;6.60;5.20;;;;;;;19.44;43.22;97231.22;10331439;28;20125;-47
2022/12/20 14:47:26;;;;;;;7.53;5.32;;;;;;;19.42;43.29;97219.91;10321546;28;20065;-47
2022/12/20 14:52:46;;;;;;;6.10;4.90;;;;;;;19.41;43.10;97222.97;10318759;28;20054;-47
2022/12/20 14:58:22;;;;;;;6.07;5.05;;;;;;;19.39;43.19;97208.97;10338013;28;20112;-49
2022/12/20 15:03:56;;;;;;;5.75;4.95;;;;;;;19.37;43.22;97179.56;10326594;28;20062;-48
2022/12/20 15:09:15;;;;;;;7.93;5.22;;;;;;;19.35;43.18;97177.16;10337596;28;20121;-47
2022/12/20 15:14:38;;;;;;;6.10;5.15;;;;;;;19.34;43.11;97170.16;10338111;28;20525;-50
2022/12/20 15:19:58;;;;;;;7.53;5.38;;;;;;;19.34;43.14;97166.66;10335870;28;20042;-48
2022/12/20 15:25:17;;;;;;;6.43;5.38;;;;;;;19.33;43.06;97154.28;10350129;28;20058;-49
2022/12/20 15:30:37;;;;;;;9.40;5.82;;;;;;;19.33;42.97;97173.97;10329537;28;20059;-48
2022/12/20 15:35:57;;;;;;;11.77;6.18;;;;;;;19.34;42.94;97180.97;10349719;28;20054;-50
2022/12/20 15:41:21;;;;;;;9.35;5.55;;;;;;;19.35;42.88;97173.66;10336125;28;20065;-46
2022/12/20 15:46:41;;;;;;;10.73;6.28;;;;;;;19.34;42.93;97161.25;10335741;28;20548;-45
2022/12/20 15:52:00;;;;;;;8.52;5.60;;;;;;;19.35;43.07;97160.94;10326254;28;20093;-46
2022/12/20 15:57:20;;;;;;;12.10;5.88;;;;;;;19.36;43.06;97189.53;10347705;28;20046;-48
2022/12/20 16:02:39;;;;;;;8.82;5.70;;;;;;;19.36;43.19;97202.25;10336292;28;20112;-45
2022/12/20 16:07:59;;;;;;;13.07;6.60;;;;;;;19.38;43.14;97208.16;10335654;28;20054;-48
2022/12/20 16:13:23;;;;;;;10.32;6.30;;;;;;;19.38;43.06;97193.84;10334609;28;20506;-48
2022/12/20 16:18:44;;;;;;;12.55;6.60;;;;;;;19.38;43.22;97183.03;10334551;28;20058;-47
2022/12/20 16:24:03;;;;;;;11.48;6.68;;;;;;;19.37;43.04;97179.56;10334192;28;20062;-46
2022/12/20 16:29:24;;;;;;;11.10;7.85;;;;;;;19.35;41.44;97184.47;10334776;28;20066;-46
2022/12/20 16:34:44;;;;;;;10.65;6.72;;;;;;;19.36;42.20;97186.06;10334054;28;20213;-47
2022/12/20 16:40:04;;;;;;;10.13;6.63;;;;;;;19.35;42.15;97179.06;10333575;28;20533;-47
2022/12/20 16:45:26;;;;;;;10.73;6.90;;;;;;;19.35;42.54;97165.56;10333919;28;20055;-46
2022/12/20 16:50:46;;;;;;;10.63;6.68;;;;;;;19.34;42.43;97163.97;10327779;28;20395;-48
2022/12/20 16:56:05;;;;;;;10.68;7.13;;;;;;;19.33;42.63;97157.75;10334156;28;20466;-45
2022/12/20 17:01:37;;;;;;;12.23;7.13;;;;;;;19.33;43.13;97148.88;10333429;28;20140;-46
2022/12/20 17:06:56;;;;;;;11.07;7.10;;;;;;;19.34;43.05;97164.75;10323830;28;20054;-47
2022/12/20 17:12:21;;;;;;;12.07;6.65;;;;;;;19.34;43.28;97153.16;10339300;28;20414;-47
2022/12/20 17:17:40;;;;;;;10.38;6.82;;;;;;;19.36;43.26;97161.75;10345733;28;20054;-45
2022/12/20 17:22:59;;;;;;;9.55;6.53;;;;;;;19.36;43.12;97162.53;10332659;28;20055;-48
2022/12/20 17:28:18;;;;;;;8.48;6.10;;;;;;;19.39;43.23;97171.13;10332376;28;20649;-46
2022/12/20 17:33:39;;;;;;;11.00;6.85;;;;;;;19.39;43.24;97165.75;10332733;28;20120;-46
2022/12/20 17:38:58;;;;;;;9.98;6.00;;;;;;;19.41;43.16;97141.91;10345515;28;20474;-46
2022/12/20 17:44:22;;;;;;;8.00;5.80;;;;;;;19.42;43.20;97148.88;10332896;28;20054;-47
2022/12/20 17:49:41;;;;;;;8.95;5.65;;;;;;;19.42;43.11;97133.47;10320337;28;20413;-48
2022/12/20 17:55:01;;;;;;;9.10;5.90;;;;;;;19.44;43.25;97131.25;10332028;28;20105;-48
2022/12/20 18:00:26;;;;;;;7.18;5.80;;;;;;;19.47;43.30;97119.81;10332043;28;20065;-48
2022/12/20 18:05:46;;;;;;;7.82;5.68;;;;;;;19.48;43.21;97110.59;10324655;28;20050;-45
2022/12/20 18:11:06;;;;;;;7.80;5.60;;;;;;;19.50;43.01;97094.88;10330891;28;20062;-47
2022/12/20 18:16:28;;;;;;;7.88;5.45;;;;;;;19.51;43.00;97072.13;10331718;28;20395;-46
2022/12/20 18:21:48;;;;;;;7.55;5.55;;;;;;;19.53;43.02;97069.91;10323941;28;20066;-49
2022/12/20 18:27:08;;;;;;;8.02;5.80;;;;;;;19.56;43.27;97087.38;10339177;28;20065;-48
2022/12/20 18:32:27;;;;;;;9.57;6.10;;;;;;;19.58;42.11;97087.84;10352355;28;20495;-48
2022/12/20 18:37:47;;;;;;;8.93;6.18;;;;;;;19.60;42.56;97087.53;10332754;28;20070;-53
2022/12/20 18:43:06;;;;;;;9.27;6.47;;;;;;;19.62;42.81;97107.75;10338802;28;20057;-46
2022/12/20 18:48:25;;;;;;;9.40;5.85;;;;;;;19.65;43.46;97103.63;10345463;28;20057;-48
2022/12/20 18:53:46;;;;;;;9.20;5.75;;;;;;;19.66;43.40;97086.28;10338639;28;20065;-48
2022/12/20 18:59:07;;;;;;;12.55;8.05;;;;;;;19.70;43.62;97106.19;10338237;28;20058;-48
2022/12/20 19:04:27;;;;;;;10.13;6.90;;;;;;;19.71;43.71;97116.69;10336502;28;20054;-43
2022/12/20 19:09:47;;;;;;;10.20;7.38;;;;;;;19.76;44.09;97113.03;10309588;28;20438;-44
2022/12/20 19:15:07;;;;;;;9.82;7.00;;;;;;;19.78;44.07;97069.44;10337555;28;20062;-47
2022/12/20 19:20:26;;;;;;;9.75;6.80;;;;;;;19.81;44.13;97064.22;10337140;28;20069;-46
2022/12/20 19:25:47;;;;;;;9.65;6.72;;;;;;;19.84;44.21;97069.00;10336704;28;20054;-46
2022/12/20 19:31:11;;;;;;;10.15;7.03;;;;;;;19.87;44.40;97068.34;10336219;28;20062;-43
2022/12/20 19:36:37;;;;;;;11.30;6.47;;;;;;;19.88;44.69;97075.34;10349786;28;20061;-46
2022/12/20 19:41:58;;;;;;;7.63;6.32;;;;;;;19.89;44.43;97081.53;10330947;28;20137;-48
2022/12/20 19:47:18;;;;;;;7.93;6.35;;;;;;;19.91;44.47;97085.50;10331455;28;20518;-47
2022/12/20 19:52:39;;;;;;;8.40;6.18;;;;;;;19.92;44.21;97080.91;10331355;28;20058;-48
2022/12/20 19:57:59;;;;;;;8.32;6.03;;;;;;;19.93;44.41;97056.25;10348925;28;20058;-46
2022/12/20 20:03:20;;;;;;;8.40;6.03;;;;;;;19.94;44.28;97036.22;10324311;28;20054;-48
2022/12/20 20:08:39;;;;;;;8.55;5.85;;;;;;;19.95;44.23;97037.81;10335832;28;20128;-47
2022/12/20 20:14:01;;;;;;;9.52;6.43;;;;;;;19.94;44.23;97019.97;10334378;28;20104;-47
2022/12/20 20:19:21;;;;;;;7.10;5.78;;;;;;;19.95;44.25;97028.88;10335070;28;20077;-45
2022/12/20 20:24:40;;;;;;;8.60;6.03;;;;;;;19.94;44.23;97006.47;10327824;28;20510;-46
2022/12/20 20:30:00;;;;;;;8.05;5.70;;;;;;;19.94;44.24;97006.47;10334528;28;20062;-47
2022/12/20 20:35:19;;;;;;;8.85;5.70;;;;;;;19.94;44.29;96979.41;10334213;28;20105;-46
2022/12/20 20:40:39;;;;;;;7.65;5.60;;;;;;;19.92;44.30;96965.44;10322451;28;20062;-47
2022/12/20 20:45:59;;;;;;;8.30;6.07;;;;;;;19.94;44.22;97032.72;10345960;28;20062;-48
2022/12/20 20:51:18;;;;;;;8.23;5.93;;;;;;;19.94;44.23;97040.81;10321764;28;20109;-45
2022/12/20 20:56:37;;;;;;;8.82;5.80;;;;;;;19.92;44.25;97016.03;10339075;28;20055;-45
2022/12/20 21:01:57;;;;;;;8.13;6.03;;;;;;;19.92;44.19;97016.03;10333561;28;20058;-46
2022/12/20 21:07:16;;;;;;;8.50;5.72;;;;;;;19.93;44.18;97040.03;10346573;28;20474;-48
2022/12/20 21:12:36;;;;;;;7.20;5.88;;;;;;;19.91;44.32;97009.78;10332528;28;20058;-45
2022/12/20 21:17:55;;;;;;;10.55;5.97;;;;;;;19.90;44.20;97019.03;10333054;28;20054;-46
2022/12/20 21:23:15;;;;;;;8.05;5.43;;;;;;;19.90;44.20;97018.25;10333048;28;20077;-48
2022/12/20 21:28:34;;;;;;;17.27;9.40;;;;;;;19.89;44.48;97006.63;10332229;28;20058;-45
2022/12/20 21:33:55;;;;;;;12.52;8.13;;;;;;;19.89;44.33;97027.47;10345506;28;20053;-48
2022/12/20 21:39:15;;;;;;;9.93;6.88;;;;;;;19.87;44.20;97014.25;10345557;28;20050;-45
2022/12/20 21:44:34;;;;;;;9.43;6.47;;;;;;;19.85;44.26;96977.84;10331732;28;20105;-49
2022/12/20 21:49:54;;;;;;;9.80;6.47;;;;;;;19.84;44.17;96992.50;10333564;28;20043;-46
2022/12/20 21:55:13;;;;;;;10.57;6.32;;;;;;;19.82;44.24;97011.75;10337193;28;20409;-45
2022/12/20 22:00:33;;;;;;;10.57;6.22;;;;;;;19.83;44.21;96999.78;10344741;28;20069;-47
2022/12/20 22:05:54;;;;;;;11.93;6.03;;;;;;;19.79;44.47;96969.13;10345577;28;20054;-49
2022/12/20 22:11:15;;;;;;;7.38;5.80;;;;;;;19.81;44.43;96985.03;10344416;28;20133;-46
2022/12/20 22:16:35;;;;;;;8.38;5.75;;;;;;;19.79;44.44;96973.75;10345166;28;20050;-46
2022/12/20 22:21:54;;;;;;;9.02;5.93;;;;;;;19.75;44.46;96939.22;10334040;28;20069;-47
2022/12/20 22:27:13;;;;;;;6.82;5.57;;;;;;;19.74;44.58;96928.75;10358238;28;20054;-48
2022/12/20 22:32:33;;;;;;;8.07;5.78;;;;;;;19.73;44.58;96932.56;10344200;28;20062;-45
2022/12/20 22:37:53;;;;;;;9.95;6.00;;;;;;;19.71;44.36;96915.84;10345052;28;20114;-47
2022/12/20 22:43:12;;;;;;;9.73;6.05;;;;;;;19.70;44.44;96916.97;10357330;28;20410;-48
2022/12/20 22:48:32;;;;;;;7.07;5.45;;;;;;;19.68;44.59;96936.22;10343722;28;20061;-47
2022/12/20 22:53:52;;;;;;;8.82;6.10;;;;;;;19.66;44.55;96921.41;10344042;28;20490;-48
2022/12/20 22:59:11;;;;;;;8.48;5.50;;;;;;;19.65;44.54;96911.72;10343821;28;20510;-46
2022/12/20 23:04:31;;;;;;;8.07;5.43;;;;;;;19.64;44.44;96920.94;10357794;28;20422;-48
2022/12/20 23:09:51;;;;;;;10.55;5.47;;;;;;;19.62;44.46;96905.06;10331179;28;20070;-47
2022/12/20 23:26:29;;;;;;;7.90;5.65;;;;;;;19.56;44.26;96888.22;10336993;28;20414;-49
2022/12/20 23:31:49;;;;;;;7.63;5.28;;;;;;;19.55;44.25;96883.94;10326972;28;20066;-48
2022/12/20 23:37:09;;;;;;;7.25;5.57;;;;;;;19.53;44.21;96886.16;10337079;28;20062;-48
2022/12/20 23:42:28;;;;;;;6.38;4.93;;;;;;;19.52;44.28;96878.38;10337048;28;20065;-48
2022/12/20 23:47:47;;;;;;;7.30;5.43;;;;;;;19.50;44.15;96916.53;10336813;28;20047;-46
2022/12/20 23:53:07;;;;;;;5.85;4.75;;;;;;;19.48;44.14;96889.03;10336613;28;20063;-49
2022/12/20 23:58:26;;;;;;;6.90;5.07;;;;;;;19.45;43.82;96927.50;10336246;28;20062;-47
